Loda, Illinois
Current Conditions -  °F | °C
As of 7:10 PM on Sunday 21 Dec 2014 (Local Time) from KTIP Reporting Station
Clear Clear  
Wind Chill: -3°   Ceiling: Unl
Heat Index:   Visibility: 7mi
Dew Point: -1°   Wind: 8mph
Humidity: 89%   Direction: 130°SE
Pressure: 30.07"   Gusts: NA
Location:  40.52°N, 88.07°W
Report Text: KTIP 220110Z AUTO 13007KT 7SM CLR 01/M01 A3007 RMK AO2 T00061010
Loading
Personal Weather Stations






























Interactive Weather Map New forecast layout! Learn more

10-Day Weather Forecast

Advertisements
Track Severe Weather on mobile